sensor_id;sensor_type;location;lat;lon;timestamp;P1;durP1;ratioP1;P2;durP2;ratioP2
13374;SDS011;6756;51.354;15.754;2023-03-16T00:01:02;7.67;;;3.50;;
13374;SDS011;6756;51.354;15.754;2023-03-16T00:05:04;8.50;;;4.10;;
13374;SDS011;6756;51.354;15.754;2023-03-16T00:09:05;4.10;;;3.23;;
13374;SDS011;6756;51.354;15.754;2023-03-16T00:13:06;8.27;;;3.13;;
13374;SDS011;6756;51.354;15.754;2023-03-16T00:17:07;7.67;;;3.17;;
13374;SDS011;6756;51.354;15.754;2023-03-16T00:21:08;4.73;;;3.10;;
13374;SDS011;6756;51.354;15.754;2023-03-16T00:25:09;8.27;;;3.03;;
13374;SDS011;6756;51.354;15.754;2023-03-16T00:29:11;7.13;;;3.50;;
13374;SDS011;6756;51.354;15.754;2023-03-16T00:33:13;10.37;;;3.70;;
13374;SDS011;6756;51.354;15.754;2023-03-16T00:37:14;9.27;;;3.17;;
13374;SDS011;6756;51.354;15.754;2023-03-16T00:41:16;6.93;;;3.37;;
13374;SDS011;6756;51.354;15.754;2023-03-16T00:45:17;6.23;;;3.47;;
13374;SDS011;6756;51.354;15.754;2023-03-16T00:49:18;6.37;;;3.10;;
13374;SDS011;6756;51.354;15.754;2023-03-16T00:53:19;5.43;;;3.10;;
13374;SDS011;6756;51.354;15.754;2023-03-16T00:57:22;5.77;;;2.83;;
13374;SDS011;6756;51.354;15.754;2023-03-16T01:01:24;8.80;;;2.70;;
13374;SDS011;6756;51.354;15.754;2023-03-16T01:05:26;4.20;;;2.57;;
13374;SDS011;6756;51.354;15.754;2023-03-16T01:09:27;7.80;;;2.53;;
13374;SDS011;6756;51.354;15.754;2023-03-16T01:13:28;8.37;;;3.10;;
13374;SDS011;6756;51.354;15.754;2023-03-16T01:17:29;4.43;;;2.77;;
13374;SDS011;6756;51.354;15.754;2023-03-16T01:21:34;4.83;;;2.77;;
13374;SDS011;6756;51.354;15.754;2023-03-16T01:25:37;4.43;;;2.60;;
13374;SDS011;6756;51.354;15.754;2023-03-16T01:29:38;4.70;;;2.37;;
13374;SDS011;6756;51.354;15.754;2023-03-16T01:33:39;4.87;;;2.50;;
13374;SDS011;6756;51.354;15.754;2023-03-16T01:37:40;4.63;;;2.73;;
13374;SDS011;6756;51.354;15.754;2023-03-16T01:41:42;4.93;;;2.50;;
13374;SDS011;6756;51.354;15.754;2023-03-16T01:50:04;5.57;;;2.63;;
13374;SDS011;6756;51.354;15.754;2023-03-16T01:54:08;4.57;;;2.77;;
13374;SDS011;6756;51.354;15.754;2023-03-16T01:58:22;5.80;;;2.50;;
13374;SDS011;6756;51.354;15.754;2023-03-16T02:02:27;7.40;;;2.80;;
13374;SDS011;6756;51.354;15.754;2023-03-16T02:06:30;4.30;;;2.80;;
13374;SDS011;6756;51.354;15.754;2023-03-16T02:10:31;6.67;;;3.17;;
13374;SDS011;6756;51.354;15.754;2023-03-16T02:14:34;5.43;;;2.70;;
13374;SDS011;6756;51.354;15.754;2023-03-16T02:18:35;7.23;;;2.97;;
13374;SDS011;6756;51.354;15.754;2023-03-16T02:22:43;6.73;;;2.70;;
13374;SDS011;6756;51.354;15.754;2023-03-16T02:26:54;5.57;;;2.60;;
13374;SDS011;6756;51.354;15.754;2023-03-16T02:30:58;4.27;;;2.80;;
13374;SDS011;6756;51.354;15.754;2023-03-16T02:35:01;9.87;;;2.80;;
13374;SDS011;6756;51.354;15.754;2023-03-16T02:39:03;5.50;;;2.77;;
13374;SDS011;6756;51.354;15.754;2023-03-16T02:43:15;7.17;;;3.30;;
13374;SDS011;6756;51.354;15.754;2023-03-16T02:47:41;4.37;;;2.97;;
13374;SDS011;6756;51.354;15.754;2023-03-16T02:51:43;5.43;;;2.70;;
13374;SDS011;6756;51.354;15.754;2023-03-16T02:55:45;5.40;;;2.80;;
13374;SDS011;6756;51.354;15.754;2023-03-16T02:59:46;8.73;;;3.10;;
13374;SDS011;6756;51.354;15.754;2023-03-16T03:03:47;8.70;;;2.57;;
13374;SDS011;6756;51.354;15.754;2023-03-16T03:07:47;4.17;;;2.20;;
13374;SDS011;6756;51.354;15.754;2023-03-16T03:11:48;5.60;;;2.80;;
13374;SDS011;6756;51.354;15.754;2023-03-16T03:15:49;5.70;;;2.73;;
13374;SDS011;6756;51.354;15.754;2023-03-16T03:19:51;4.30;;;2.70;;
13374;SDS011;6756;51.354;15.754;2023-03-16T03:23:52;6.83;;;2.37;;
13374;SDS011;6756;51.354;15.754;2023-03-16T03:27:53;4.30;;;2.07;;
13374;SDS011;6756;51.354;15.754;2023-03-16T03:31:54;4.53;;;2.20;;
13374;SDS011;6756;51.354;15.754;2023-03-16T03:35:56;3.93;;;2.60;;
13374;SDS011;6756;51.354;15.754;2023-03-16T03:39:57;6.97;;;2.93;;
13374;SDS011;6756;51.354;15.754;2023-03-16T03:43:59;4.87;;;2.87;;
13374;SDS011;6756;51.354;15.754;2023-03-16T03:47:59;3.70;;;2.80;;
13374;SDS011;6756;51.354;15.754;2023-03-16T03:52:00;4.60;;;3.10;;
13374;SDS011;6756;51.354;15.754;2023-03-16T03:56:04;7.23;;;2.63;;
13374;SDS011;6756;51.354;15.754;2023-03-16T04:00:05;6.10;;;2.70;;
13374;SDS011;6756;51.354;15.754;2023-03-16T04:04:08;5.43;;;3.00;;
13374;SDS011;6756;51.354;15.754;2023-03-16T04:08:09;6.07;;;2.90;;
13374;SDS011;6756;51.354;15.754;2023-03-16T04:12:10;8.70;;;3.40;;
13374;SDS011;6756;51.354;15.754;2023-03-16T04:16:11;6.67;;;2.73;;
13374;SDS011;6756;51.354;15.754;2023-03-16T04:20:15;6.90;;;3.40;;
13374;SDS011;6756;51.354;15.754;2023-03-16T04:24:18;5.33;;;3.30;;
13374;SDS011;6756;51.354;15.754;2023-03-16T04:28:19;5.10;;;3.33;;
13374;SDS011;6756;51.354;15.754;2023-03-16T04:32:20;7.47;;;3.23;;
13374;SDS011;6756;51.354;15.754;2023-03-16T04:36:20;6.33;;;2.93;;
13374;SDS011;6756;51.354;15.754;2023-03-16T04:40:23;6.37;;;3.40;;
13374;SDS011;6756;51.354;15.754;2023-03-16T04:44:25;6.30;;;3.77;;
13374;SDS011;6756;51.354;15.754;2023-03-16T04:48:26;8.20;;;3.50;;
13374;SDS011;6756;51.354;15.754;2023-03-16T04:52:28;6.00;;;3.43;;
13374;SDS011;6756;51.354;15.754;2023-03-16T04:56:29;6.30;;;3.57;;
13374;SDS011;6756;51.354;15.754;2023-03-16T05:00:30;6.10;;;4.13;;
13374;SDS011;6756;51.354;15.754;2023-03-16T05:04:31;8.43;;;4.03;;
13374;SDS011;6756;51.354;15.754;2023-03-16T05:08:33;9.53;;;4.27;;
13374;SDS011;6756;51.354;15.754;2023-03-16T05:12:34;7.73;;;4.77;;
13374;SDS011;6756;51.354;15.754;2023-03-16T05:16:35;9.27;;;4.27;;
13374;SDS011;6756;51.354;15.754;2023-03-16T05:20:35;9.33;;;4.40;;
13374;SDS011;6756;51.354;15.754;2023-03-16T05:24:36;9.03;;;4.97;;
13374;SDS011;6756;51.354;15.754;2023-03-16T05:28:37;9.00;;;5.20;;
13374;SDS011;6756;51.354;15.754;2023-03-16T05:32:39;10.37;;;5.13;;
13374;SDS011;6756;51.354;15.754;2023-03-16T05:36:39;10.27;;;5.40;;
13374;SDS011;6756;51.354;15.754;2023-03-16T05:40:40;9.10;;;5.33;;
13374;SDS011;6756;51.354;15.754;2023-03-16T05:44:41;13.30;;;6.17;;
13374;SDS011;6756;51.354;15.754;2023-03-16T05:48:43;8.73;;;4.80;;
13374;SDS011;6756;51.354;15.754;2023-03-16T05:52:44;9.93;;;4.57;;
13374;SDS011;6756;51.354;15.754;2023-03-16T05:56:45;8.37;;;5.20;;
13374;SDS011;6756;51.354;15.754;2023-03-16T06:00:46;11.57;;;5.03;;
13374;SDS011;6756;51.354;15.754;2023-03-16T06:04:47;10.00;;;5.00;;
13374;SDS011;6756;51.354;15.754;2023-03-16T06:08:48;9.97;;;5.67;;
13374;SDS011;6756;51.354;15.754;2023-03-16T06:12:52;12.87;;;6.13;;
13374;SDS011;6756;51.354;15.754;2023-03-16T06:16:53;10.90;;;5.57;;
13374;SDS011;6756;51.354;15.754;2023-03-16T06:20:53;11.43;;;5.93;;
13374;SDS011;6756;51.354;15.754;2023-03-16T06:24:54;11.67;;;7.07;;
13374;SDS011;6756;51.354;15.754;2023-03-16T06:28:55;9.37;;;5.87;;
13374;SDS011;6756;51.354;15.754;2023-03-16T06:32:56;10.60;;;5.40;;
13374;SDS011;6756;51.354;15.754;2023-03-16T06:36:59;10.60;;;5.90;;
13374;SDS011;6756;51.354;15.754;2023-03-16T06:41:00;11.07;;;6.23;;
13374;SDS011;6756;51.354;15.754;2023-03-16T06:45:00;14.27;;;7.00;;
13374;SDS011;6756;51.354;15.754;2023-03-16T06:49:01;13.27;;;6.50;;
13374;SDS011;6756;51.354;15.754;2023-03-16T06:53:03;11.53;;;6.53;;
13374;SDS011;6756;51.354;15.754;2023-03-16T06:57:04;10.33;;;6.20;;
13374;SDS011;6756;51.354;15.754;2023-03-16T07:01:05;14.50;;;5.67;;
13374;SDS011;6756;51.354;15.754;2023-03-16T07:05:06;15.33;;;6.00;;
13374;SDS011;6756;51.354;15.754;2023-03-16T07:09:07;12.37;;;6.47;;
13374;SDS011;6756;51.354;15.754;2023-03-16T07:13:08;11.00;;;5.43;;
13374;SDS011;6756;51.354;15.754;2023-03-16T07:21:32;10.77;;;5.67;;
13374;SDS011;6756;51.354;15.754;2023-03-16T07:25:38;9.10;;;5.33;;
13374;SDS011;6756;51.354;15.754;2023-03-16T07:29:39;10.50;;;5.40;;
13374;SDS011;6756;51.354;15.754;2023-03-16T07:33:40;9.67;;;5.00;;
13374;SDS011;6756;51.354;15.754;2023-03-16T07:37:41;8.80;;;4.87;;
13374;SDS011;6756;51.354;15.754;2023-03-16T07:41:42;7.70;;;4.77;;
13374;SDS011;6756;51.354;15.754;2023-03-16T07:45:47;9.77;;;3.97;;
13374;SDS011;6756;51.354;15.754;2023-03-16T07:49:49;5.73;;;3.27;;
13374;SDS011;6756;51.354;15.754;2023-03-16T07:53:49;6.60;;;3.57;;
13374;SDS011;6756;51.354;15.754;2023-03-16T07:57:50;5.60;;;3.40;;
13374;SDS011;6756;51.354;15.754;2023-03-16T08:01:51;6.17;;;3.20;;
13374;SDS011;6756;51.354;15.754;2023-03-16T08:05:52;7.47;;;3.47;;
13374;SDS011;6756;51.354;15.754;2023-03-16T08:09:54;6.83;;;2.97;;
13374;SDS011;6756;51.354;15.754;2023-03-16T08:13:54;5.70;;;2.97;;
13374;SDS011;6756;51.354;15.754;2023-03-16T08:17:56;6.23;;;2.40;;
13374;SDS011;6756;51.354;15.754;2023-03-16T08:21:58;4.13;;;2.57;;
13374;SDS011;6756;51.354;15.754;2023-03-16T08:26:00;8.73;;;2.93;;
13374;SDS011;6756;51.354;15.754;2023-03-16T08:30:01;5.03;;;2.23;;
13374;SDS011;6756;51.354;15.754;2023-03-16T08:34:04;7.40;;;2.77;;
13374;SDS011;6756;51.354;15.754;2023-03-16T08:38:05;6.03;;;2.47;;
13374;SDS011;6756;51.354;15.754;2023-03-16T08:42:06;3.87;;;2.33;;
13374;SDS011;6756;51.354;15.754;2023-03-16T08:46:07;7.03;;;2.67;;
13374;SDS011;6756;51.354;15.754;2023-03-16T08:50:09;7.13;;;2.67;;
13374;SDS011;6756;51.354;15.754;2023-03-16T08:54:15;6.23;;;2.23;;
13374;SDS011;6756;51.354;15.754;2023-03-16T08:58:16;3.87;;;2.43;;
13374;SDS011;6756;51.354;15.754;2023-03-16T09:02:17;6.27;;;2.50;;
13374;SDS011;6756;51.354;15.754;2023-03-16T09:06:19;6.53;;;2.30;;
13374;SDS011;6756;51.354;15.754;2023-03-16T09:10:21;7.20;;;2.23;;
13374;SDS011;6756;51.354;15.754;2023-03-16T09:14:23;5.47;;;1.60;;
13374;SDS011;6756;51.354;15.754;2023-03-16T09:18:24;5.40;;;2.30;;
13374;SDS011;6756;51.354;15.754;2023-03-16T09:22:26;5.97;;;2.00;;
13374;SDS011;6756;51.354;15.754;2023-03-16T09:26:27;5.73;;;1.77;;
13374;SDS011;6756;51.354;15.754;2023-03-16T09:30:28;8.97;;;1.87;;
13374;SDS011;6756;51.354;15.754;2023-03-16T09:34:29;4.17;;;1.47;;
13374;SDS011;6756;51.354;15.754;2023-03-16T09:38:31;5.87;;;1.13;;
13374;SDS011;6756;51.354;15.754;2023-03-16T09:42:35;3.27;;;1.43;;
13374;SDS011;6756;51.354;15.754;2023-03-16T09:46:43;4.53;;;1.40;;
13374;SDS011;6756;51.354;15.754;2023-03-16T09:50:48;5.87;;;1.50;;
13374;SDS011;6756;51.354;15.754;2023-03-16T09:54:52;3.10;;;1.10;;
13374;SDS011;6756;51.354;15.754;2023-03-16T09:59:08;4.13;;;1.33;;
13374;SDS011;6756;51.354;15.754;2023-03-16T10:07:48;4.63;;;1.53;;
13374;SDS011;6756;51.354;15.754;2023-03-16T10:11:55;3.27;;;1.23;;
13374;SDS011;6756;51.354;15.754;2023-03-16T10:15:58;3.83;;;1.13;;
13374;SDS011;6756;51.354;15.754;2023-03-16T10:20:04;9.00;;;1.20;;
13374;SDS011;6756;51.354;15.754;2023-03-16T10:28:55;3.67;;;1.10;;
13374;SDS011;6756;51.354;15.754;2023-03-16T10:32:59;2.97;;;0.83;;
13374;SDS011;6756;51.354;15.754;2023-03-16T10:37:03;3.80;;;1.27;;
13374;SDS011;6756;51.354;15.754;2023-03-16T10:53:35;2.53;;;0.80;;
13374;SDS011;6756;51.354;15.754;2023-03-16T10:57:40;5.10;;;1.00;;
13374;SDS011;6756;51.354;15.754;2023-03-16T11:01:46;4.10;;;0.90;;
13374;SDS011;6756;51.354;15.754;2023-03-16T11:06:01;4.40;;;1.20;;
13374;SDS011;6756;51.354;15.754;2023-03-16T11:10:23;3.80;;;1.40;;
13374;SDS011;6756;51.354;15.754;2023-03-16T11:14:35;2.43;;;0.80;;
13374;SDS011;6756;51.354;15.754;2023-03-16T11:18:43;2.97;;;1.00;;
13374;SDS011;6756;51.354;15.754;2023-03-16T11:22:46;2.40;;;1.00;;
13374;SDS011;6756;51.354;15.754;2023-03-16T11:26:47;4.03;;;1.57;;
13374;SDS011;6756;51.354;15.754;2023-03-16T11:35:27;2.67;;;1.10;;
13374;SDS011;6756;51.354;15.754;2023-03-16T11:39:57;3.43;;;0.90;;
13374;SDS011;6756;51.354;15.754;2023-03-16T11:44:16;1.93;;;0.80;;
13374;SDS011;6756;51.354;15.754;2023-03-16T11:53:00;1.60;;;0.90;;
13374;SDS011;6756;51.354;15.754;2023-03-16T12:06:05;2.67;;;1.00;;
13374;SDS011;6756;51.354;15.754;2023-03-16T12:10:25;3.33;;;0.87;;
13374;SDS011;6756;51.354;15.754;2023-03-16T12:14:40;6.23;;;1.10;;
13374;SDS011;6756;51.354;15.754;2023-03-16T12:19:01;1.83;;;0.80;;
13374;SDS011;6756;51.354;15.754;2023-03-16T12:23:11;3.93;;;1.10;;
13374;SDS011;6756;51.354;15.754;2023-03-16T12:27:16;2.20;;;1.20;;
13374;SDS011;6756;51.354;15.754;2023-03-16T12:31:34;2.90;;;0.87;;
13374;SDS011;6756;51.354;15.754;2023-03-16T12:35:51;2.50;;;1.03;;
13374;SDS011;6756;51.354;15.754;2023-03-16T12:40:03;3.40;;;1.20;;
13374;SDS011;6756;51.354;15.754;2023-03-16T12:44:16;2.90;;;1.17;;
13374;SDS011;6756;51.354;15.754;2023-03-16T12:48:46;3.13;;;1.17;;
13374;SDS011;6756;51.354;15.754;2023-03-16T12:52:51;4.77;;;1.17;;
13374;SDS011;6756;51.354;15.754;2023-03-16T12:56:58;1.73;;;0.87;;
13374;SDS011;6756;51.354;15.754;2023-03-16T13:01:04;2.10;;;1.00;;
13374;SDS011;6756;51.354;15.754;2023-03-16T13:05:10;2.83;;;1.37;;
13374;SDS011;6756;51.354;15.754;2023-03-16T13:09:18;1.97;;;0.80;;
13374;SDS011;6756;51.354;15.754;2023-03-16T13:13:24;6.00;;;1.20;;
13374;SDS011;6756;51.354;15.754;2023-03-16T13:17:30;1.70;;;0.70;;
13374;SDS011;6756;51.354;15.754;2023-03-16T13:21:38;2.83;;;0.90;;
13374;SDS011;6756;51.354;15.754;2023-03-16T13:25:41;6.30;;;0.93;;
13374;SDS011;6756;51.354;15.754;2023-03-16T13:34:22;2.67;;;0.70;;
13374;SDS011;6756;51.354;15.754;2023-03-16T13:38:26;3.43;;;0.67;;
13374;SDS011;6756;51.354;15.754;2023-03-16T13:42:28;1.93;;;0.80;;
13374;SDS011;6756;51.354;15.754;2023-03-16T13:46:31;2.33;;;0.93;;
13374;SDS011;6756;51.354;15.754;2023-03-16T13:50:32;2.90;;;0.60;;
13374;SDS011;6756;51.354;15.754;2023-03-16T13:54:35;2.93;;;0.80;;
13374;SDS011;6756;51.354;15.754;2023-03-16T13:58:36;2.03;;;0.80;;
13374;SDS011;6756;51.354;15.754;2023-03-16T14:02:43;3.63;;;0.90;;
13374;SDS011;6756;51.354;15.754;2023-03-16T14:06:52;1.70;;;0.50;;
13374;SDS011;6756;51.354;15.754;2023-03-16T14:11:02;2.03;;;0.57;;
13374;SDS011;6756;51.354;15.754;2023-03-16T14:15:03;2.03;;;0.70;;
13374;SDS011;6756;51.354;15.754;2023-03-16T14:19:16;2.43;;;0.90;;
13374;SDS011;6756;51.354;15.754;2023-03-16T14:23:25;2.90;;;1.07;;
13374;SDS011;6756;51.354;15.754;2023-03-16T14:31:39;4.90;;;0.93;;
13374;SDS011;6756;51.354;15.754;2023-03-16T14:35:41;1.70;;;0.73;;
13374;SDS011;6756;51.354;15.754;2023-03-16T14:39:42;2.50;;;0.80;;
13374;SDS011;6756;51.354;15.754;2023-03-16T14:43:48;1.70;;;0.70;;
13374;SDS011;6756;51.354;15.754;2023-03-16T14:47:51;2.20;;;0.83;;
13374;SDS011;6756;51.354;15.754;2023-03-16T14:51:57;2.80;;;0.60;;
13374;SDS011;6756;51.354;15.754;2023-03-16T14:56:01;3.37;;;1.07;;
13374;SDS011;6756;51.354;15.754;2023-03-16T15:00:02;2.90;;;0.87;;
13374;SDS011;6756;51.354;15.754;2023-03-16T15:04:04;1.70;;;0.90;;
13374;SDS011;6756;51.354;15.754;2023-03-16T15:08:10;1.87;;;0.70;;
13374;SDS011;6756;51.354;15.754;2023-03-16T15:12:22;1.73;;;0.93;;
13374;SDS011;6756;51.354;15.754;2023-03-16T15:16:26;2.03;;;0.80;;
13374;SDS011;6756;51.354;15.754;2023-03-16T15:20:27;3.53;;;0.93;;
13374;SDS011;6756;51.354;15.754;2023-03-16T15:24:32;2.23;;;0.80;;
13374;SDS011;6756;51.354;15.754;2023-03-16T15:28:33;2.47;;;1.03;;
13374;SDS011;6756;51.354;15.754;2023-03-16T15:32:33;2.53;;;1.07;;
13374;SDS011;6756;51.354;15.754;2023-03-16T15:36:34;3.50;;;1.07;;
13374;SDS011;6756;51.354;15.754;2023-03-16T15:40:35;4.20;;;1.57;;
13374;SDS011;6756;51.354;15.754;2023-03-16T15:44:38;2.40;;;1.03;;
13374;SDS011;6756;51.354;15.754;2023-03-16T15:48:39;2.70;;;1.17;;
13374;SDS011;6756;51.354;15.754;2023-03-16T15:52:42;2.90;;;1.20;;
13374;SDS011;6756;51.354;15.754;2023-03-16T15:56:45;1.80;;;1.03;;
13374;SDS011;6756;51.354;15.754;2023-03-16T16:00:46;2.90;;;1.40;;
13374;SDS011;6756;51.354;15.754;2023-03-16T16:04:48;4.03;;;1.30;;
13374;SDS011;6756;51.354;15.754;2023-03-16T16:08:49;1.80;;;1.00;;
13374;SDS011;6756;51.354;15.754;2023-03-16T16:12:50;2.80;;;1.30;;
13374;SDS011;6756;51.354;15.754;2023-03-16T16:16:53;4.20;;;1.47;;
13374;SDS011;6756;51.354;15.754;2023-03-16T16:20:58;3.70;;;1.20;;
13374;SDS011;6756;51.354;15.754;2023-03-16T16:25:01;3.40;;;1.50;;
13374;SDS011;6756;51.354;15.754;2023-03-16T16:29:08;3.70;;;1.33;;
13374;SDS011;6756;51.354;15.754;2023-03-16T16:33:22;5.57;;;1.70;;
13374;SDS011;6756;51.354;15.754;2023-03-16T16:37:23;4.63;;;1.93;;
13374;SDS011;6756;51.354;15.754;2023-03-16T16:41:28;3.90;;;1.50;;
13374;SDS011;6756;51.354;15.754;2023-03-16T16:45:31;3.60;;;1.63;;
13374;SDS011;6756;51.354;15.754;2023-03-16T16:49:31;2.43;;;1.40;;
13374;SDS011;6756;51.354;15.754;2023-03-16T16:53:33;2.33;;;1.23;;
13374;SDS011;6756;51.354;15.754;2023-03-16T16:57:34;2.20;;;1.30;;
13374;SDS011;6756;51.354;15.754;2023-03-16T17:01:36;3.53;;;1.50;;
13374;SDS011;6756;51.354;15.754;2023-03-16T17:05:38;2.10;;;0.93;;
13374;SDS011;6756;51.354;15.754;2023-03-16T17:09:38;4.07;;;1.40;;
13374;SDS011;6756;51.354;15.754;2023-03-16T17:13:39;1.37;;;1.00;;
13374;SDS011;6756;51.354;15.754;2023-03-16T17:17:41;3.40;;;1.17;;
13374;SDS011;6756;51.354;15.754;2023-03-16T17:21:42;2.93;;;1.03;;
13374;SDS011;6756;51.354;15.754;2023-03-16T17:25:44;1.00;;;0.80;;
13374;SDS011;6756;51.354;15.754;2023-03-16T17:29:45;2.97;;;1.10;;
13374;SDS011;6756;51.354;15.754;2023-03-16T17:33:45;1.50;;;1.20;;
13374;SDS011;6756;51.354;15.754;2023-03-16T17:37:47;2.97;;;1.10;;
13374;SDS011;6756;51.354;15.754;2023-03-16T17:46:03;3.53;;;1.23;;
13374;SDS011;6756;51.354;15.754;2023-03-16T17:50:13;2.90;;;1.23;;
13374;SDS011;6756;51.354;15.754;2023-03-16T17:54:19;3.73;;;1.73;;
13374;SDS011;6756;51.354;15.754;2023-03-16T17:58:24;2.80;;;1.57;;
13374;SDS011;6756;51.354;15.754;2023-03-16T18:06:52;3.50;;;1.40;;
13374;SDS011;6756;51.354;15.754;2023-03-16T18:10:58;4.90;;;2.17;;
13374;SDS011;6756;51.354;15.754;2023-03-16T18:15:00;4.17;;;2.03;;
13374;SDS011;6756;51.354;15.754;2023-03-16T18:19:03;3.90;;;2.33;;
13374;SDS011;6756;51.354;15.754;2023-03-16T18:23:12;9.90;;;5.60;;
13374;SDS011;6756;51.354;15.754;2023-03-16T18:27:32;9.33;;;4.57;;
13374;SDS011;6756;51.354;15.754;2023-03-16T18:31:33;11.63;;;5.53;;
13374;SDS011;6756;51.354;15.754;2023-03-16T18:35:34;11.13;;;5.70;;
13374;SDS011;6756;51.354;15.754;2023-03-16T18:39:36;12.33;;;6.47;;
13374;SDS011;6756;51.354;15.754;2023-03-16T18:43:37;9.90;;;5.57;;
13374;SDS011;6756;51.354;15.754;2023-03-16T18:47:38;16.80;;;6.10;;
13374;SDS011;6756;51.354;15.754;2023-03-16T18:51:43;9.90;;;5.67;;
13374;SDS011;6756;51.354;15.754;2023-03-16T18:55:48;9.73;;;5.40;;
13374;SDS011;6756;51.354;15.754;2023-03-16T18:59:49;10.77;;;5.63;;
13374;SDS011;6756;51.354;15.754;2023-03-16T19:03:50;11.07;;;5.10;;
13374;SDS011;6756;51.354;15.754;2023-03-16T19:07:52;12.23;;;5.50;;
13374;SDS011;6756;51.354;15.754;2023-03-16T19:11:53;11.13;;;5.97;;
13374;SDS011;6756;51.354;15.754;2023-03-16T19:15:54;14.63;;;6.67;;
13374;SDS011;6756;51.354;15.754;2023-03-16T19:19:56;17.20;;;7.00;;
13374;SDS011;6756;51.354;15.754;2023-03-16T19:23:57;16.20;;;7.77;;
13374;SDS011;6756;51.354;15.754;2023-03-16T19:28:02;14.60;;;6.80;;
13374;SDS011;6756;51.354;15.754;2023-03-16T19:32:04;17.87;;;7.53;;
13374;SDS011;6756;51.354;15.754;2023-03-16T19:36:05;14.50;;;6.80;;
13374;SDS011;6756;51.354;15.754;2023-03-16T19:40:14;15.97;;;6.20;;
13374;SDS011;6756;51.354;15.754;2023-03-16T19:44:18;15.63;;;7.97;;
13374;SDS011;6756;51.354;15.754;2023-03-16T19:48:30;23.07;;;8.23;;
13374;SDS011;6756;51.354;15.754;2023-03-16T19:52:32;17.70;;;8.27;;
13374;SDS011;6756;51.354;15.754;2023-03-16T19:56:33;17.87;;;8.10;;
13374;SDS011;6756;51.354;15.754;2023-03-16T20:00:33;19.47;;;8.73;;
13374;SDS011;6756;51.354;15.754;2023-03-16T20:04:35;16.50;;;8.03;;
13374;SDS011;6756;51.354;15.754;2023-03-16T20:08:37;18.33;;;8.43;;
13374;SDS011;6756;51.354;15.754;2023-03-16T20:12:37;14.37;;;7.20;;
13374;SDS011;6756;51.354;15.754;2023-03-16T20:16:41;15.20;;;6.80;;
13374;SDS011;6756;51.354;15.754;2023-03-16T20:20:43;13.87;;;6.40;;
13374;SDS011;6756;51.354;15.754;2023-03-16T20:24:46;11.77;;;6.00;;
13374;SDS011;6756;51.354;15.754;2023-03-16T20:28:48;10.37;;;4.90;;
13374;SDS011;6756;51.354;15.754;2023-03-16T20:32:50;10.83;;;4.90;;
13374;SDS011;6756;51.354;15.754;2023-03-16T20:36:51;9.20;;;5.17;;
13374;SDS011;6756;51.354;15.754;2023-03-16T20:40:52;9.17;;;4.47;;
13374;SDS011;6756;51.354;15.754;2023-03-16T20:44:53;10.07;;;3.97;;
13374;SDS011;6756;51.354;15.754;2023-03-16T20:48:55;8.23;;;3.47;;
13374;SDS011;6756;51.354;15.754;2023-03-16T20:52:57;10.40;;;4.27;;
13374;SDS011;6756;51.354;15.754;2023-03-16T20:56:58;7.97;;;3.40;;
13374;SDS011;6756;51.354;15.754;2023-03-16T21:01:00;10.43;;;4.57;;
13374;SDS011;6756;51.354;15.754;2023-03-16T21:05:04;10.73;;;5.20;;
13374;SDS011;6756;51.354;15.754;2023-03-16T21:09:07;9.00;;;4.53;;
13374;SDS011;6756;51.354;15.754;2023-03-16T21:17:32;13.03;;;6.30;;
13374;SDS011;6756;51.354;15.754;2023-03-16T21:21:36;12.17;;;6.27;;
13374;SDS011;6756;51.354;15.754;2023-03-16T21:25:39;13.50;;;5.70;;
13374;SDS011;6756;51.354;15.754;2023-03-16T21:30:10;11.93;;;5.80;;
13374;SDS011;6756;51.354;15.754;2023-03-16T21:34:26;11.67;;;5.80;;
13374;SDS011;6756;51.354;15.754;2023-03-16T21:38:32;11.23;;;5.87;;
13374;SDS011;6756;51.354;15.754;2023-03-16T21:42:33;10.50;;;5.63;;
13374;SDS011;6756;51.354;15.754;2023-03-16T21:46:35;11.53;;;5.90;;
13374;SDS011;6756;51.354;15.754;2023-03-16T21:50:35;12.27;;;5.83;;
13374;SDS011;6756;51.354;15.754;2023-03-16T21:54:37;12.63;;;6.23;;
13374;SDS011;6756;51.354;15.754;2023-03-16T21:58:37;12.07;;;5.93;;
13374;SDS011;6756;51.354;15.754;2023-03-16T22:02:38;15.67;;;6.57;;
13374;SDS011;6756;51.354;15.754;2023-03-16T22:06:39;12.77;;;6.17;;
13374;SDS011;6756;51.354;15.754;2023-03-16T22:10:41;10.53;;;6.10;;
13374;SDS011;6756;51.354;15.754;2023-03-16T22:14:42;12.17;;;6.17;;
13374;SDS011;6756;51.354;15.754;2023-03-16T22:18:43;14.50;;;7.33;;
13374;SDS011;6756;51.354;15.754;2023-03-16T22:22:46;13.73;;;6.20;;
13374;SDS011;6756;51.354;15.754;2023-03-16T22:26:47;11.10;;;6.50;;
13374;SDS011;6756;51.354;15.754;2023-03-16T22:30:50;11.93;;;6.97;;
13374;SDS011;6756;51.354;15.754;2023-03-16T22:34:52;11.80;;;6.43;;
13374;SDS011;6756;51.354;15.754;2023-03-16T22:38:56;11.20;;;6.37;;
13374;SDS011;6756;51.354;15.754;2023-03-16T22:43:00;12.73;;;7.03;;
13374;SDS011;6756;51.354;15.754;2023-03-16T22:47:09;14.77;;;6.83;;
13374;SDS011;6756;51.354;15.754;2023-03-16T22:51:32;12.43;;;6.00;;
13374;SDS011;6756;51.354;15.754;2023-03-16T22:55:36;12.67;;;7.27;;
13374;SDS011;6756;51.354;15.754;2023-03-16T22:59:39;14.70;;;6.97;;
13374;SDS011;6756;51.354;15.754;2023-03-16T23:03:40;14.73;;;7.67;;
13374;SDS011;6756;51.354;15.754;2023-03-16T23:07:41;14.83;;;8.20;;
13374;SDS011;6756;51.354;15.754;2023-03-16T23:11:42;14.07;;;7.93;;
13374;SDS011;6756;51.354;15.754;2023-03-16T23:15:46;13.80;;;7.83;;
13374;SDS011;6756;51.354;15.754;2023-03-16T23:19:47;14.57;;;7.67;;
13374;SDS011;6756;51.354;15.754;2023-03-16T23:23:48;18.70;;;9.07;;
13374;SDS011;6756;51.354;15.754;2023-03-16T23:27:50;25.50;;;10.07;;
13374;SDS011;6756;51.354;15.754;2023-03-16T23:31:51;26.20;;;11.33;;
13374;SDS011;6756;51.354;15.754;2023-03-16T23:35:53;38.40;;;15.40;;
13374;SDS011;6756;51.354;15.754;2023-03-16T23:39:54;27.33;;;12.13;;
13374;SDS011;6756;51.354;15.754;2023-03-16T23:43:54;23.13;;;9.30;;
13374;SDS011;6756;51.354;15.754;2023-03-16T23:47:57;20.73;;;9.23;;
13374;SDS011;6756;51.354;15.754;2023-03-16T23:52:01;18.17;;;10.17;;
13374;SDS011;6756;51.354;15.754;2023-03-16T23:56:02;22.90;;;11.23;;
